Pagrindinis puslapis
METAR-TAF:

METAR-TAF

Oro uostai :

Rørvik, Norvegija

platuma: 64-50N, ilguma: 011-09E, Aukštis: 4 m

Dabartinis oras

Ataskaita buvo paskelbta 7 valandos ir 41 minutes, ne 19:50 UTC
Ramus vėjas
Temperatūra 9°C
Drėgmė 100%
Slėgis 1019 hPa
Matomumas 10 km arba daugiau
Mažai debesys ne aukštis 1600 ft

METAR: ENRM 231950Z 00000KT 9999 FEW016 09/09 Q1019

Laikas: 05:31 (03:31 UTC)

Prognozė

Ataskaita buvo paskelbta 13 valandos ir 31 minutes, ne 14:00 UTC
Prognozė galioja nuo 23 metu 15 UTC su 23 metu 20 UTC
Vėjas 8 kt iš Vakarų
Matomumas 10 km arba daugiau
Išsisklaidę debesys ne aukštis 2000 ft

TAF: ENRM 231400Z 2315/2320 27008KT 9999 SCT020

Orai ataskaitas ir orų prognozės (METAR, TAF).

turimą stotys yra geltonos ir raudonos taškus žemėlapyje.

Perkelti pele per norėdami pamatyti stoties vardą.

Tada spustelėkite, norėdami matyti oro stebėjimo ir prognozės.

Norėdami pakeisti žemėlapį: spustelėkite ant žalios mygtukų su juodo kryžiaus žemyn,; žalią mygtuką su brūkšneliu, jei norite nutolinti; arba žalių rodyklių gretimoms žemėlapius.


METAR-TAF: